Map

Track Data

SID SEASON NUMBER BASIN SUBBASIN NAME ISO_TIME NATURE LAT LON WMO_WIND WMO_PRES WMO_AGENCY TRACK_TYPE DIST2LAND LANDFALL IFLAG USA_AGENCY USA_ATCF_ID USA_LAT USA_LON USA_RECORD USA_STATUS USA_WIND USA_PRES USA_SSHS USA_R34_NE USA_R34_SE USA_R34_SW USA_R34_NW USA_R50_NE USA_R50_SE USA_R50_SW USA_R50_NW USA_R64_NE USA_R64_SE USA_R64_SW USA_R64_NW USA_POCI USA_ROCI USA_RMW USA_EYE TOKYO_LAT TOKYO_LON TOKYO_GRADE TOKYO_WIND TOKYO_PRES TOKYO_R50_DIR TOKYO_R50_LONG TOKYO_R50_SHORT TOKYO_R30_DIR TOKYO_R30_LONG TOKYO_R30_SHORT TOKYO_LAND CMA_LAT CMA_LON CMA_CAT CMA_WIND CMA_PRES HKO_LAT HKO_LON HKO_CAT HKO_WIND HKO_PRES NEWDELHI_LAT NEWDELHI_LON NEWDELHI_GRADE NEWDELHI_WIND NEWDELHI_PRES NEWDELHI_CI NEWDELHI_DP NEWDELHI_POCI REUNION_LAT REUNION_LON REUNION_TYPE REUNION_WIND REUNION_PRES REUNION_TNUM REUNION_CI REUNION_RMW REUNION_R34_NE REUNION_R34_SE REUNION_R34_SW REUNION_R34_NW REUNION_R50_NE REUNION_R50_SE REUNION_R50_SW REUNION_R50_NW REUNION_R64_NE REUNION_R64_SE REUNION_R64_SW REUNION_R64_NW BOM_LAT BOM_LON BOM_TYPE BOM_WIND BOM_PRES BOM_TNUM BOM_CI BOM_RMW BOM_R34_NE BOM_R34_SE BOM_R34_SW BOM_R34_NW BOM_R50_NE BOM_R50_SE BOM_R50_SW BOM_R50_NW BOM_R64_NE BOM_R64_SE BOM_R64_SW BOM_R64_NW BOM_ROCI BOM_POCI BOM_EYE BOM_POS_METHOD BOM_PRES_METHOD NADI_LAT NADI_LON NADI_CAT NADI_WIND NADI_PRES WELLINGTON_LAT WELLINGTON_LON WELLINGTON_WIND WELLINGTON_PRES DS824_LAT DS824_LON DS824_STAGE DS824_WIND DS824_PRES TD9636_LAT TD9636_LON TD9636_STAGE TD9636_WIND TD9636_PRES TD9635_LAT TD9635_LON TD9635_WIND TD9635_PRES TD9635_ROCI NEUMANN_LAT NEUMANN_LON NEUMANN_CLASS NEUMANN_WIND NEUMANN_PRES MLC_LAT MLC_LON MLC_CLASS MLC_WIND MLC_PRES USA_GUST BOM_GUST BOM_GUST_PER REUNION_GUST REUNION_GUST_PER USA_SEAHGT USA_SEARAD_NE USA_SEARAD_SE USA_SEARAD_SW USA_SEARAD_NW STORM_SPEED STORM_DIR
1885121S13066 1885 19 SI MM NOT_NAMED 1885-04-30 18:00:00 NR -13.2000 66.1000 main 1181 1143 __________O___ -1 -13.2000 66.1000 7 7 212
1885121S13066 1885 19 SI MM NOT_NAMED 1885-04-30 21:00:00 NR -13.5017 65.9083 main 1143 1104 __________P___ -1 -13.5017 65.9083 7 7 212
1885121S13066 1885 19 SI MM NOT_NAMED 1885-05-01 00:00:00 NR -13.7927 65.7230 main 1104 1081 __________P___ -1 -13.7927 65.7230 7 7 212
1885121S13066 1885 19 SI MM NOT_NAMED 1885-05-01 03:00:00 NR -14.0623 65.5513 main 1074 1043 __________P___ -1 -14.0623 65.5513 7 6 212
1885121S13066 1885 19 SI MM NOT_NAMED 1885-05-01 06:00:00 NR -14.3000 65.4000 main 1043 1021 __________O___ -1 -14.3000 65.4000 7 5 211
1885121S13066 1885 19 SI MM NOT_NAMED 1885-05-01 09:00:00 NR -14.4996 65.2742 main 1021 998 __________P___ -1 -14.4996 65.2742 7 4 211
1885121S13066 1885 19 SI MM NOT_NAMED 1885-05-01 12:00:00 NR -14.6724 65.1697 main 998 983 __________P___ -1 -14.6724 65.1697 7 4 209
1885121S13066 1885 19 SI MM NOT_NAMED 1885-05-01 15:00:00 NR -14.8340 65.0805 main 983 961 __________P___ -1 -14.8340 65.0805 7 4 207
1885121S13066 1885 19 SI MM NOT_NAMED 1885-05-01 18:00:00 NR -15.0000 65.0000 main 961 939 __________O___ -1 -15.0000 65.0000 7 4 204
1885121S13066 1885 19 SI MM NOT_NAMED 1885-05-01 21:00:00 NR -15.2050 64.9137 main 939 917 __________P___ -1 -15.2050 64.9137 7 4 201
1885121S13066 1885 19 SI MM NOT_NAMED 1885-05-02 00:00:00 NR -15.4150 64.8350 main 917 904 __________P___ -1 -15.4150 64.8350 7 4 199
1885121S13066 1885 19 SI MM NOT_NAMED 1885-05-02 03:00:00 NR -15.6175 64.7638 main 904 882 __________P___ -1 -15.6175 64.7638 7 4 199
1885121S13066 1885 19 SI MM NOT_NAMED 1885-05-02 06:00:00 NR -15.8000 64.7000 main 882 867 __________O___ -1 -15.8000 64.7000 7 4 200
1885121S13066 1885 19 SI MM NOT_NAMED 1885-05-02 09:00:00 NR -15.9465 64.6427 main 867 855 __________P___ -1 -15.9465 64.6427 7 3 200
1885121S13066 1885 19 SI MM NOT_NAMED 1885-05-02 12:00:00 NR -16.0725 64.5924 main 855 840 __________P___ -1 -16.0725 64.5924 7 3 202
1885121S13066 1885 19 SI MM NOT_NAMED 1885-05-02 15:00:00 NR -16.1872 64.5459 main 840 834 __________P___ -1 -16.1872 64.5459 7 2 201
1885121S13066 1885 19 SI MM NOT_NAMED 1885-05-02 18:00:00 NR -16.3000 64.5000 main 834 819 __________O___ -1 -16.3000 64.5000 7 3 203
1885121S13066 1885 19 SI MM NOT_NAMED 1885-05-02 21:00:00 NR -16.4169 64.4459 main 819 813 __________P___ -1 -16.4169 64.4459 7 3 204
1885121S13066 1885 19 SI MM NOT_NAMED 1885-05-03 00:00:00 NR -16.5350 64.3925 main 813 793 __________P___ -1 -16.5350 64.3925 7 3 202
1885121S13066 1885 19 SI MM NOT_NAMED 1885-05-03 03:00:00 NR -16.6606 64.3428 main 793 787 __________P___ -1 -16.6606 64.3428 7 3 199
1885121S13066 1885 19 SI MM NOT_NAMED 1885-05-03 06:00:00 NR -16.8000 64.3000 main 787 777 __________O___ -1 -16.8000 64.3000 7 3 193
1885121S13066 1885 19 SI MM NOT_NAMED 1885-05-03 09:00:00 NR -16.9687 64.2678 main 777 762 __________P___ -1 -16.9687 64.2678 7 4 188
1885121S13066 1885 19 SI MM NOT_NAMED 1885-05-03 12:00:00 NR -17.1500 64.2425 main 762 752 __________P___ -1 -17.1500 64.2425 7 4 186
1885121S13066 1885 19 SI MM NOT_NAMED 1885-05-03 15:00:00 NR -17.3312 64.2209 main 752 742 __________P___ -1 -17.3312 64.2209 7 4 186
1885121S13066 1885 19 SI MM NOT_NAMED 1885-05-03 18:00:00 NR -17.5000 64.2000 main 742 737 __________O___ -1 -17.5000 64.2000 7 3 190
1885121S13066 1885 19 SI MM NOT_NAMED 1885-05-03 21:00:00 NR -17.6069 64.1709 main 737 723 __________P___ -1 -17.6069 64.1709 7 2 196
1885121S13066 1885 19 SI MM NOT_NAMED 1885-05-04 00:00:00 NR -17.7050 64.1425 main 723 718 __________P___ -1 -17.7050 64.1425 7 2 196
1885121S13066 1885 19 SI MM NOT_NAMED 1885-05-04 03:00:00 NR -17.8256 64.1178 main 718 709 __________P___ -1 -17.8256 64.1178 7 3 189
1885121S13066 1885 19 SI MM NOT_NAMED 1885-05-04 06:00:00 NR -18.0000 64.1000 main 709 697 __________O___ -1 -18.0000 64.1000 7 5 184
1885121S13066 1885 19 SI MM NOT_NAMED 1885-05-04 09:00:00 NR -18.2756 64.0807 main 697 687 __________P___ -1 -18.2756 64.0807 7 6 184
1885121S13066 1885 19 SI MM NOT_NAMED 1885-05-04 12:00:00 NR -18.6050 64.0702 main 687 678 __________P___ -1 -18.6050 64.0702 7 7 0
1885121S13066 1885 19 SI MM NOT_NAMED 1885-05-04 15:00:00 NR -18.9569 64.0745 main 675 668 __________P___ -1 -18.9569 64.0745 7 7 176
1885121S13066 1885 19 SI MM NOT_NAMED 1885-05-04 18:00:00 NR -19.3000 64.1000 main 668 663 __________O___ -1 -19.3000 64.1000 7 6 174
1885121S13066 1885 19 SI MM NOT_NAMED 1885-05-04 21:00:00 NR -19.5934 64.1413 main 663 663 __________P___ -1 -19.5934 64.1413 7 6 171
1885121S13066 1885 19 SI MM NOT_NAMED 1885-05-05 00:00:00 NR -19.8724 64.2051 main 669 668 __________P___ -1 -19.8724 64.2051 7 6 165
1885121S13066 1885 19 SI MM NOT_NAMED 1885-05-05 03:00:00 NR -20.1403 64.2914 main 678 677 __________P___ -1 -20.1403 64.2914 7 6 161
1885121S13066 1885 19 SI MM NOT_NAMED 1885-05-05 06:00:00 NR -20.4000 64.4000 main 688 688 __________O___ -1 -20.4000 64.4000 7 6 157
1885121S13066 1885 19 SI MM NOT_NAMED 1885-05-05 09:00:00 NR -20.6694 64.5283 main 699 699 __________P___ -1 -20.6694 64.5283 7 6 154
1885121S13066 1885 19 SI MM NOT_NAMED 1885-05-05 12:00:00 NR -20.9300 64.6774 main 721 721 __________P___ -1 -20.9300 64.6774 7 6 150
1885121S13066 1885 19 SI MM NOT_NAMED 1885-05-05 15:00:00 NR -21.1756 64.8377 main 734 734 __________P___ -1 -21.1756 64.8377 7 6 147
1885121S13066 1885 19 SI MM NOT_NAMED 1885-05-05 18:00:00 NR -21.4000 65.0000 main 758 758 __________O___ -1 -21.4000 65.0000 7 5 145
1885121S13066 1885 19 SI MM NOT_NAMED 1885-05-05 21:00:00 NR -21.5991 65.1566 main 781 781 __________P___ -1 -21.5991 65.1566 7 5 143
1885121S13066 1885 19 SI MM NOT_NAMED 1885-05-06 00:00:00 NR -21.7775 65.3074 main 795 795 __________P___ -1 -21.7775 65.3074 7 4 141
1885121S13066 1885 19 SI MM NOT_NAMED 1885-05-06 03:00:00 NR -21.9422 65.4546 main 818 818 __________P___ -1 -21.9422 65.4546 7 4 140
1885121S13066 1885 19 SI MM NOT_NAMED 1885-05-06 06:00:00 NR -22.1000 65.6000 main 833 __________O___ -1 -22.1000 65.6000 7 4 139

About IBTrACS Database

This database is a web-friendly format of International Best Track Archive for Climate Stewardship (IBTrACS), a global best track data archive curated by NOAA dating back to 1842.

Updated: 2021-11-26